Jennifer — WDF6480 — position and weather

sailwx.info

Track history (hours):
 
Tides and Currents Weather Stations Pressure Air Temp Water Temp Dewpoint Dewpoint Depression Visibility Wind Speed Wind Dir Waves Ship Positions

Jennifer

Owner: John W. Stone Oil Distributor, L.L.C., Gretna, LA. More information available from US FCC via Universal Licensing System and Coast Guard Vessel Documentation Center.

Last reported at 2016-May-29 13:34 UTC. Time now 2016-May-29 13:33 UTC.
Position N 29°52' W 090°04'.

Length 17 m; draft 3 m.

Type: Tug. MMSI: 367474690.

Date/timePositionNaut miles runAvg speedWind from/ knotsBaromVisibWave heightAir tempDewpointWater temp
2016-May-29 13:34N 29°52' W 090°04'7 4.8
2016-May-29 12:08N 29°46' W 090°08'21 3.8
2016-May-29 06:26N 29°33' W 090°28'4 5.0
2016-May-29 05:33N 29°34' W 090°33'6 6.1
2016-May-29 04:34N 29°36' W 090°40'4 4.4
2016-May-29 03:34N 29°34' W 090°44'1 1.1
2016-May-29 02:34N 29°33' W 090°45'3 3.2
2016-May-29 01:33N 29°32' W 090°49'102 5.4
2016-May-28 06:33N 29°57' W 092°43'14 6.2
2016-May-28 04:22N 29°56' W 092°58'3 4.1
2016-May-28 03:34N 29°56' W 093°02'6 6.5
2016-May-28 02:34N 29°56' W 093°09'7 6.8
2016-May-28 01:34N 30°02' W 093°14'5 5.1
2016-May-28 00:34N 30°05' W 093°18'1 0.7
2016-May-27 23:34N 30°06' W 093°18'4 4.3
2016-May-27 22:34N 30°02' W 093°20'7 7.5
2016-May-27 21:34N 29°55' W 093°20'8 2.6
2016-May-27 18:22N 29°46' W 093°21'0 0.0
2016-May-27 10:22N 29°46' W 093°21'0 0.0
2016-May-27 09:23N 29°46' W 093°21'0 0.0
2016-May-27 08:33N 29°46' W 093°21'0 0.0
2016-May-27 07:34N 29°46' W 093°21'0 0.0
2016-May-27 06:34N 29°46' W 093°21'0 0.0
2016-May-27 05:33N 29°46' W 093°21'0 0.0
2016-May-27 04:34N 29°46' W 093°21'3 2.8
2016-May-27 03:34N 29°49' W 093°21'8 8.0
2016-May-27 02:34N 29°57' W 093°20'8 7.7
2016-May-27 01:33N 30°05' W 093°20'3 2.6
2016-May-27 00:34N 30°05' W 093°17'0 0.3
2016-May-26 23:34N 30°04' W 093°16'5 4.6
2016-May-26 22:34N 30°00' W 093°14'6 6.2
2016-May-26 21:34N 29°56' W 093°09'7 6.8
2016-May-26 20:28N 29°56' W 093°00'111 4.3
2016-May-25 18:30N 29°34' W 090°55'6 6.1
2016-May-25 17:33N 29°32' W 090°49'5 5.4
2016-May-25 16:34N 29°34' W 090°43'3 3.2
2016-May-25 15:33N 29°36' W 090°40'0 0.0
2016-May-25 14:33N 29°36' W 090°40'0 0.0
2016-May-25 13:33N 29°36' W 090°40'0 0.0
2016-May-25 12:33N 29°36' W 090°40'2 1.6
2016-May-25 11:33N 29°35' W 090°38'5 5.2
2016-May-25 10:32N 29°34' W 090°33'28 4.4
2016-May-25 04:04N 29°47' W 090°04'3 5.0
2016-May-25 03:33N 29°50' W 090°04'4 4.3
2016-May-25 02:33N 29°53' W 090°00'3 2.9
2016-May-25 01:34N 29°55' W 089°58'1 0.6
2016-May-25 00:33N 29°55' W 089°58'0 0.0
2016-May-24 10:33N 29°55' W 089°57'6 5.6
2016-May-24 09:33N 29°57' W 090°03'2 1.9
2016-May-24 08:33N 29°55' W 090°04'1 1.2
2016-May-24 07:34N 29°55' W 090°05'0 0.0
2016-May-24 06:34N 29°55' W 090°05'1 0.8
2016-May-24 05:34N 29°55' W 090°04'0 0.4
2016-May-24 04:34N 29°55' W 090°04'0 0.0
2016-May-24 03:34N 29°55' W 090°04'0 0.0
2016-May-24 02:33N 29°55' W 090°04'0 0.0
2016-May-24 01:34N 29°55' W 090°04'0 0.0
2016-May-24 00:34N 29°55' W 090°04'0 0.1
2016-May-23 23:33N 29°56' W 090°04'0 0.2
2016-May-23 22:25N 29°56' W 090°03'2 2.1
2016-May-23 21:34N 29°57' W 090°02'4 3.6
2016-May-23 20:33N 29°56' W 089°59'4 3.6
2016-May-23 19:21N 29°52' W 089°56'1 1.5
2016-May-23 18:31N 29°53' W 089°57'0 0.0
2016-May-23 14:17N 29°53' W 089°57'2 2.7
2016-May-23 13:32N 29°52' W 089°55'9 8.7
2016-May-23 12:31N 29°58' W 090°03'2 2.2
2016-May-23 11:34N 29°56' W 090°04'0 0.0
2016-May-23 10:34N 29°56' W 090°04'0 0.4
2016-May-23 09:33N 29°55' W 090°04'0 0.4
2016-May-23 08:33N 29°56' W 090°04'0 0.1
2016-May-23 07:33N 29°56' W 090°04'4 3.6
2016-May-23 06:34N 29°56' W 089°59'4 0.2
2016-May-22 09:34N 29°55' W 090°04'0 0.0
2016-May-22 08:34N 29°55' W 090°04'0 0.0
2016-May-22 07:33N 29°55' W 090°04'0 0.0
2016-May-22 06:33N 29°55' W 090°04'0 0.1
2016-May-22 05:34N 29°56' W 090°04'3 0.5
2016-May-21 23:23N 29°56' W 090°00'0 0.0
2016-May-21 13:33N 29°57' W 090°00'0 0.0
2016-May-21 12:33N 29°57' W 090°00'0 0.0
2016-May-21 11:33N 29°57' W 090°00'3 3.1
2016-May-21 10:34N 29°56' W 090°03'0 0.0
2016-May-21 09:34N 29°56' W 090°03'0 0.0
2016-May-21 08:34N 29°56' W 090°03'0 0.0
2016-May-21 07:33N 29°56' W 090°03'0 0.0
2016-May-21 06:34N 29°56' W 090°03'0 0.4
2016-May-21 05:33N 29°55' W 090°04'0 0.0
2016-May-21 04:34N 29°55' W 090°04'0 0.0
2016-May-21 03:33N 29°55' W 090°04'2 2.0
2016-May-21 02:33N 29°57' W 090°03'5 5.1
2016-May-21 01:34N 29°55' W 089°58'1 1.1
2016-May-21 00:33N 29°54' W 089°59'1 1.3
2016-May-20 23:34N 29°53' W 089°60'0 0.0
2016-May-20 22:33N 29°53' W 089°60'2 1.8
2016-May-20 21:33N 29°52' W 090°01'2 2.4
2016-May-20 20:34N 29°50' W 090°03'2 1.5
2016-May-20 19:28N 29°49' W 090°04'25 4.9
2016-May-20 14:18N 29°33' W 090°27'5 7.2
2016-May-20 13:33N 29°34' W 090°33'6 6.5
2016-May-20 12:33N 29°36' W 090°40'4 3.8
2016-May-20 11:33N 29°34' W 090°44'7 6.6
2016-May-20 10:33N 29°32' W 090°51'  
Track history (hours):
 
Tides and Currents Weather Stations Pressure Air Temp Water Temp Dewpoint Dewpoint Depression Visibility Wind Speed Wind Dir Waves Ship Positions

Jennifer

Owner: John W. Stone Oil Distributor, L.L.C., Gretna, LA. More information available from US FCC via Universal Licensing System and Coast Guard Vessel Documentation Center.

Last reported at 2016-May-29 13:34 UTC. Time now 2016-May-29 13:33 UTC.
Position N 29°52' W 090°04'.

Length 17 m; draft 3 m.

Type: Tug. MMSI: 367474690.

Date/timePositionNaut miles runAvg speedWind from/ knotsBaromVisibWave heightAir tempDewpointWater temp
2016-May-29 13:34N 29°52' W 090°04'7 4.8
2016-May-29 12:08N 29°46' W 090°08'21 3.8
2016-May-29 06:26N 29°33' W 090°28'4 5.0
2016-May-29 05:33N 29°34' W 090°33'6 6.1
2016-May-29 04:34N 29°36' W 090°40'4 4.4
2016-May-29 03:34N 29°34' W 090°44'1 1.1
2016-May-29 02:34N 29°33' W 090°45'3 3.2
2016-May-29 01:33N 29°32' W 090°49'102 5.4
2016-May-28 06:33N 29°57' W 092°43'14 6.2
2016-May-28 04:22N 29°56' W 092°58'3 4.1
2016-May-28 03:34N 29°56' W 093°02'6 6.5
2016-May-28 02:34N 29°56' W 093°09'7 6.8
2016-May-28 01:34N 30°02' W 093°14'5 5.1
2016-May-28 00:34N 30°05' W 093°18'1 0.7
2016-May-27 23:34N 30°06' W 093°18'4 4.3
2016-May-27 22:34N 30°02' W 093°20'7 7.5
2016-May-27 21:34N 29°55' W 093°20'8 2.6
2016-May-27 18:22N 29°46' W 093°21'0 0.0
2016-May-27 10:22N 29°46' W 093°21'0 0.0
2016-May-27 09:23N 29°46' W 093°21'0 0.0
2016-May-27 08:33N 29°46' W 093°21'0 0.0
2016-May-27 07:34N 29°46' W 093°21'0 0.0
2016-May-27 06:34N 29°46' W 093°21'0 0.0
2016-May-27 05:33N 29°46' W 093°21'0 0.0
2016-May-27 04:34N 29°46' W 093°21'3 2.8
2016-May-27 03:34N 29°49' W 093°21'8 8.0
2016-May-27 02:34N 29°57' W 093°20'8 7.7
2016-May-27 01:33N 30°05' W 093°20'3 2.6
2016-May-27 00:34N 30°05' W 093°17'0 0.3
2016-May-26 23:34N 30°04' W 093°16'5 4.6
2016-May-26 22:34N 30°00' W 093°14'6 6.2
2016-May-26 21:34N 29°56' W 093°09'7 6.8
2016-May-26 20:28N 29°56' W 093°00'111 4.3
2016-May-25 18:30N 29°34' W 090°55'6 6.1
2016-May-25 17:33N 29°32' W 090°49'5 5.4
2016-May-25 16:34N 29°34' W 090°43'3 3.2
2016-May-25 15:33N 29°36' W 090°40'0 0.0
2016-May-25 14:33N 29°36' W 090°40'0 0.0
2016-May-25 13:33N 29°36' W 090°40'0 0.0
2016-May-25 12:33N 29°36' W 090°40'2 1.6
2016-May-25 11:33N 29°35' W 090°38'5 5.2
2016-May-25 10:32N 29°34' W 090°33'28 4.4
2016-May-25 04:04N 29°47' W 090°04'3 5.0
2016-May-25 03:33N 29°50' W 090°04'4 4.3
2016-May-25 02:33N 29°53' W 090°00'3 2.9
2016-May-25 01:34N 29°55' W 089°58'1 0.6
2016-May-25 00:33N 29°55' W 089°58'0 0.0
2016-May-24 10:33N 29°55' W 089°57'6 5.6
2016-May-24 09:33N 29°57' W 090°03'2 1.9
2016-May-24 08:33N 29°55' W 090°04'1 1.2
2016-May-24 07:34N 29°55' W 090°05'0 0.0
2016-May-24 06:34N 29°55' W 090°05'1 0.8
2016-May-24 05:34N 29°55' W 090°04'0 0.4
2016-May-24 04:34N 29°55' W 090°04'0 0.0
2016-May-24 03:34N 29°55' W 090°04'0 0.0
2016-May-24 02:33N 29°55' W 090°04'0 0.0
2016-May-24 01:34N 29°55' W 090°04'0 0.0
2016-May-24 00:34N 29°55' W 090°04'0 0.1
2016-May-23 23:33N 29°56' W 090°04'0 0.2
2016-May-23 22:25N 29°56' W 090°03'2 2.1
2016-May-23 21:34N 29°57' W 090°02'4 3.6
2016-May-23 20:33N 29°56' W 089°59'4 3.6
2016-May-23 19:21N 29°52' W 089°56'1 1.5
2016-May-23 18:31N 29°53' W 089°57'0 0.0
2016-May-23 14:17N 29°53' W 089°57'2 2.7
2016-May-23 13:32N 29°52' W 089°55'9 8.7
2016-May-23 12:31N 29°58' W 090°03'2 2.2
2016-May-23 11:34N 29°56' W 090°04'0 0.0
2016-May-23 10:34N 29°56' W 090°04'0 0.4
2016-May-23 09:33N 29°55' W 090°04'0 0.4
2016-May-23 08:33N 29°56' W 090°04'0 0.1
2016-May-23 07:33N 29°56' W 090°04'4 3.6
2016-May-23 06:34N 29°56' W 089°59'4 0.2
2016-May-22 09:34N 29°55' W 090°04'0 0.0
2016-May-22 08:34N 29°55' W 090°04'0 0.0
2016-May-22 07:33N 29°55' W 090°04'0 0.0
2016-May-22 06:33N 29°55' W 090°04'0 0.1
2016-May-22 05:34N 29°56' W 090°04'3 0.5
2016-May-21 23:23N 29°56' W 090°00'0 0.0
2016-May-21 13:33N 29°57' W 090°00'0 0.0
2016-May-21 12:33N 29°57' W 090°00'0 0.0
2016-May-21 11:33N 29°57' W 090°00'3 3.1
2016-May-21 10:34N 29°56' W 090°03'0 0.0
2016-May-21 09:34N 29°56' W 090°03'0 0.0
2016-May-21 08:34N 29°56' W 090°03'0 0.0
2016-May-21 07:33N 29°56' W 090°03'0 0.0
2016-May-21 06:34N 29°56' W 090°03'0 0.4
2016-May-21 05:33N 29°55' W 090°04'0 0.0
2016-May-21 04:34N 29°55' W 090°04'0 0.0
2016-May-21 03:33N 29°55' W 090°04'2 2.0
2016-May-21 02:33N 29°57' W 090°03'5 5.1
2016-May-21 01:34N 29°55' W 089°58'1 1.1
2016-May-21 00:33N 29°54' W 089°59'1 1.3
2016-May-20 23:34N 29°53' W 089°60'0 0.0
2016-May-20 22:33N 29°53' W 089°60'2 1.8
2016-May-20 21:33N 29°52' W 090°01'2 2.4
2016-May-20 20:34N 29°50' W 090°03'2 1.5
2016-May-20 19:28N 29°49' W 090°04'25 4.9
2016-May-20 14:18N 29°33' W 090°27'5 7.2
2016-May-20 13:33N 29°34' W 090°33'6 6.5
2016-May-20 12:33N 29°36' W 090°40'4 3.8
2016-May-20 11:33N 29°34' W 090°44'7 6.6
2016-May-20 10:33N 29°32' W 090°51'  

Dump ship's entire track history